sensor_id;sensor_type;location;lat;lon;timestamp;P1;durP1;ratioP1;P2;durP2;ratioP2
49183;SDS011;35021;49.214;12.270;2022-08-03T00:00:25;1.40;;;1.10;;
49183;SDS011;35021;49.214;12.270;2022-08-03T00:02:52;3.08;;;1.40;;
49183;SDS011;35021;49.214;12.270;2022-08-03T00:05:19;2.20;;;1.50;;
49183;SDS011;35021;49.214;12.270;2022-08-03T00:07:46;2.35;;;1.20;;
49183;SDS011;35021;49.214;12.270;2022-08-03T00:10:14;1.83;;;1.55;;
49183;SDS011;35021;49.214;12.270;2022-08-03T00:12:42;2.03;;;1.40;;
49183;SDS011;35021;49.214;12.270;2022-08-03T00:15:09;1.40;;;1.30;;
49183;SDS011;35021;49.214;12.270;2022-08-03T00:17:41;2.90;;;1.17;;
49183;SDS011;35021;49.214;12.270;2022-08-03T00:20:22;1.60;;;1.23;;
49183;SDS011;35021;49.214;12.270;2022-08-03T00:22:49;1.90;;;1.35;;
49183;SDS011;35021;49.214;12.270;2022-08-03T00:25:16;2.75;;;1.27;;
49183;SDS011;35021;49.214;12.270;2022-08-03T00:27:44;2.20;;;1.23;;
49183;SDS011;35021;49.214;12.270;2022-08-03T00:30:13;2.35;;;1.48;;
49183;SDS011;35021;49.214;12.270;2022-08-03T00:32:42;1.60;;;1.23;;
49183;SDS011;35021;49.214;12.270;2022-08-03T00:35:10;1.65;;;1.38;;
49183;SDS011;35021;49.214;12.270;2022-08-03T00:37:58;1.67;;;1.40;;
49183;SDS011;35021;49.214;12.270;2022-08-03T00:40:25;2.50;;;1.73;;
49183;SDS011;35021;49.214;12.270;2022-08-03T00:43:02;1.27;;;1.17;;
49183;SDS011;35021;49.214;12.270;2022-08-03T00:45:35;2.03;;;1.40;;
49183;SDS011;35021;49.214;12.270;2022-08-03T00:48:03;1.42;;;1.33;;
49183;SDS011;35021;49.214;12.270;2022-08-03T00:50:51;2.03;;;1.17;;
49183;SDS011;35021;49.214;12.270;2022-08-03T00:53:19;1.25;;;1.15;;
49183;SDS011;35021;49.214;12.270;2022-08-03T00:55:46;1.48;;;1.38;;
49183;SDS011;35021;49.214;12.270;2022-08-03T00:58:13;1.38;;;1.27;;
49183;SDS011;35021;49.214;12.270;2022-08-03T01:00:40;1.40;;;1.10;;
49183;SDS011;35021;49.214;12.270;2022-08-03T01:03:08;1.65;;;1.20;;
49183;SDS011;35021;49.214;12.270;2022-08-03T01:05:43;1.65;;;1.20;;
49183;SDS011;35021;49.214;12.270;2022-08-03T01:08:22;1.40;;;1.20;;
49183;SDS011;35021;49.214;12.270;2022-08-03T01:14:26;2.00;;;1.40;;
49183;SDS011;35021;49.214;12.270;2022-08-03T01:17:00;1.52;;;1.30;;
49183;SDS011;35021;49.214;12.270;2022-08-03T01:22:44;1.10;;;1.00;;
49183;SDS011;35021;49.214;12.270;2022-08-03T01:30:59;1.55;;;1.25;;
49183;SDS011;35021;49.214;12.270;2022-08-03T01:33:34;1.58;;;1.30;;
49183;SDS011;35021;49.214;12.270;2022-08-03T01:36:05;1.63;;;1.42;;
49183;SDS011;35021;49.214;12.270;2022-08-03T01:38:39;1.20;;;1.10;;
49183;SDS011;35021;49.214;12.270;2022-08-03T01:41:11;1.38;;;1.27;;
49183;SDS011;35021;49.214;12.270;2022-08-03T01:43:44;1.35;;;1.23;;
49183;SDS011;35021;49.214;12.270;2022-08-03T01:46:35;1.30;;;1.10;;
49183;SDS011;35021;49.214;12.270;2022-08-03T01:49:03;1.42;;;1.33;;
49183;SDS011;35021;49.214;12.270;2022-08-03T01:51:36;1.30;;;1.20;;
49183;SDS011;35021;49.214;12.270;2022-08-03T01:54:27;1.42;;;1.13;;
49183;SDS011;35021;49.214;12.270;2022-08-03T01:56:55;1.65;;;1.30;;
49183;SDS011;35021;49.214;12.270;2022-08-03T01:59:23;1.30;;;1.20;;
49183;SDS011;35021;49.214;12.270;2022-08-03T02:01:51;1.33;;;1.20;;
49183;SDS011;35021;49.214;12.270;2022-08-03T02:04:40;1.38;;;1.27;;
49183;SDS011;35021;49.214;12.270;2022-08-03T02:07:09;1.90;;;1.17;;
49183;SDS011;35021;49.214;12.270;2022-08-03T02:09:37;2.47;;;1.40;;
49183;SDS011;35021;49.214;12.270;2022-08-03T02:12:10;2.22;;;1.23;;
49183;SDS011;35021;49.214;12.270;2022-08-03T02:14:40;1.45;;;1.30;;
49183;SDS011;35021;49.214;12.270;2022-08-03T02:17:08;1.50;;;1.40;;
49183;SDS011;35021;49.214;12.270;2022-08-03T02:19:36;1.33;;;1.13;;
49183;SDS011;35021;49.214;12.270;2022-08-03T02:22:04;2.88;;;1.67;;
49183;SDS011;35021;49.214;12.270;2022-08-03T02:24:33;1.60;;;1.40;;
49183;SDS011;35021;49.214;12.270;2022-08-03T02:27:00;2.35;;;1.30;;
49183;SDS011;35021;49.214;12.270;2022-08-03T02:29:32;1.25;;;1.15;;
49183;SDS011;35021;49.214;12.270;2022-08-03T02:32:08;1.50;;;1.30;;
49183;SDS011;35021;49.214;12.270;2022-08-03T02:34:37;1.38;;;1.27;;
49183;SDS011;35021;49.214;12.270;2022-08-03T02:37:07;1.17;;;1.08;;
49183;SDS011;35021;49.214;12.270;2022-08-03T02:39:36;3.40;;;1.40;;
49183;SDS011;35021;49.214;12.270;2022-08-03T02:42:06;1.40;;;1.30;;
49183;SDS011;35021;49.214;12.270;2022-08-03T02:44:37;1.48;;;1.30;;
49183;SDS011;35021;49.214;12.270;2022-08-03T02:47:06;1.70;;;1.38;;
49183;SDS011;35021;49.214;12.270;2022-08-03T02:49:36;1.48;;;1.38;;
49183;SDS011;35021;49.214;12.270;2022-08-03T02:52:17;1.83;;;1.50;;
49183;SDS011;35021;49.214;12.270;2022-08-03T02:54:50;1.42;;;1.30;;
49183;SDS011;35021;49.214;12.270;2022-08-03T02:57:20;1.63;;;1.10;;
49183;SDS011;35021;49.214;12.270;2022-08-03T02:59:48;1.58;;;1.48;;
49183;SDS011;35021;49.214;12.270;2022-08-03T03:02:16;2.15;;;1.50;;
49183;SDS011;35021;49.214;12.270;2022-08-03T03:04:45;1.60;;;1.50;;
49183;SDS011;35021;49.214;12.270;2022-08-03T03:07:33;2.03;;;1.50;;
49183;SDS011;35021;49.214;12.270;2022-08-03T03:10:20;1.40;;;1.30;;
49183;SDS011;35021;49.214;12.270;2022-08-03T03:12:52;2.67;;;1.95;;
49183;SDS011;35021;49.214;12.270;2022-08-03T03:15:22;1.40;;;1.30;;
49183;SDS011;35021;49.214;12.270;2022-08-03T03:17:50;1.60;;;1.50;;
49183;SDS011;35021;49.214;12.270;2022-08-03T03:20:19;1.55;;;1.38;;
49183;SDS011;35021;49.214;12.270;2022-08-03T03:22:57;1.60;;;1.50;;
49183;SDS011;35021;49.214;12.270;2022-08-03T03:25:26;1.50;;;1.40;;
49183;SDS011;35021;49.214;12.270;2022-08-03T03:27:56;1.30;;;1.20;;
49183;SDS011;35021;49.214;12.270;2022-08-03T03:30:24;1.40;;;1.30;;
49183;SDS011;35021;49.214;12.270;2022-08-03T03:32:52;1.58;;;1.48;;
49183;SDS011;35021;49.214;12.270;2022-08-03T03:35:19;1.52;;;1.40;;
49183;SDS011;35021;49.214;12.270;2022-08-03T03:37:46;1.95;;;1.50;;
49183;SDS011;35021;49.214;12.270;2022-08-03T03:40:13;1.65;;;1.30;;
49183;SDS011;35021;49.214;12.270;2022-08-03T03:42:40;1.70;;;1.40;;
49183;SDS011;35021;49.214;12.270;2022-08-03T03:45:07;1.85;;;1.30;;
49183;SDS011;35021;49.214;12.270;2022-08-03T03:47:34;1.63;;;1.52;;
49183;SDS011;35021;49.214;12.270;2022-08-03T03:50:02;1.73;;;1.27;;
49183;SDS011;35021;49.214;12.270;2022-08-03T03:52:31;1.98;;;1.60;;
49183;SDS011;35021;49.214;12.270;2022-08-03T03:54:58;1.70;;;1.30;;
49183;SDS011;35021;49.214;12.270;2022-08-03T03:57:27;1.70;;;1.60;;
49183;SDS011;35021;49.214;12.270;2022-08-03T03:59:54;1.60;;;1.50;;
49183;SDS011;35021;49.214;12.270;2022-08-03T04:02:22;1.65;;;1.40;;
49183;SDS011;35021;49.214;12.270;2022-08-03T04:04:49;1.23;;;1.10;;
49183;SDS011;35021;49.214;12.270;2022-08-03T04:10:45;1.48;;;1.30;;
49183;SDS011;35021;49.214;12.270;2022-08-03T04:13:32;1.92;;;1.52;;
49183;SDS011;35021;49.214;12.270;2022-08-03T04:16:01;1.60;;;1.50;;
49183;SDS011;35021;49.214;12.270;2022-08-03T04:18:29;1.73;;;1.60;;
49183;SDS011;35021;49.214;12.270;2022-08-03T04:21:00;2.28;;;1.50;;
49183;SDS011;35021;49.214;12.270;2022-08-03T04:23:32;1.42;;;1.30;;
49183;SDS011;35021;49.214;12.270;2022-08-03T04:26:01;1.70;;;1.60;;
49183;SDS011;35021;49.214;12.270;2022-08-03T04:28:30;1.85;;;1.60;;
49183;SDS011;35021;49.214;12.270;2022-08-03T04:30:58;1.98;;;1.55;;
49183;SDS011;35021;49.214;12.270;2022-08-03T04:33:29;2.00;;;1.52;;
49183;SDS011;35021;49.214;12.270;2022-08-03T04:36:00;2.58;;;1.40;;
49183;SDS011;35021;49.214;12.270;2022-08-03T04:38:32;1.77;;;1.60;;
49183;SDS011;35021;49.214;12.270;2022-08-03T04:41:04;1.95;;;1.50;;
49183;SDS011;35021;49.214;12.270;2022-08-03T04:43:31;2.40;;;1.60;;
49183;SDS011;35021;49.214;12.270;2022-08-03T04:45:59;1.63;;;1.40;;
49183;SDS011;35021;49.214;12.270;2022-08-03T04:48:27;2.47;;;1.60;;
49183;SDS011;35021;49.214;12.270;2022-08-03T04:50:54;2.45;;;1.63;;
49183;SDS011;35021;49.214;12.270;2022-08-03T04:53:22;1.60;;;1.40;;
49183;SDS011;35021;49.214;12.270;2022-08-03T04:55:49;1.55;;;1.45;;
49183;SDS011;35021;49.214;12.270;2022-08-03T04:58:17;2.90;;;1.60;;
49183;SDS011;35021;49.214;12.270;2022-08-03T05:00:43;4.13;;;1.83;;
49183;SDS011;35021;49.214;12.270;2022-08-03T05:03:11;3.92;;;1.83;;
49183;SDS011;35021;49.214;12.270;2022-08-03T05:05:50;2.53;;;1.60;;
49183;SDS011;35021;49.214;12.270;2022-08-03T05:08:18;2.40;;;1.70;;
49183;SDS011;35021;49.214;12.270;2022-08-03T05:10:53;2.88;;;1.52;;
49183;SDS011;35021;49.214;12.270;2022-08-03T05:13:24;2.65;;;1.50;;
49183;SDS011;35021;49.214;12.270;2022-08-03T05:15:51;2.13;;;1.75;;
49183;SDS011;35021;49.214;12.270;2022-08-03T05:18:18;1.58;;;1.48;;
49183;SDS011;35021;49.214;12.270;2022-08-03T05:20:45;2.15;;;1.73;;
49183;SDS011;35021;49.214;12.270;2022-08-03T05:23:12;2.15;;;1.70;;
49183;SDS011;35021;49.214;12.270;2022-08-03T05:25:39;2.53;;;1.80;;
49183;SDS011;35021;49.214;12.270;2022-08-03T05:28:15;1.73;;;1.60;;
49183;SDS011;35021;49.214;12.270;2022-08-03T05:30:42;2.00;;;1.80;;
49183;SDS011;35021;49.214;12.270;2022-08-03T05:33:08;3.25;;;1.88;;
49183;SDS011;35021;49.214;12.270;2022-08-03T05:35:36;3.58;;;2.00;;
49183;SDS011;35021;49.214;12.270;2022-08-03T05:38:24;1.70;;;1.60;;
49183;SDS011;35021;49.214;12.270;2022-08-03T05:40:59;3.13;;;1.80;;
49183;SDS011;35021;49.214;12.270;2022-08-03T05:43:46;2.67;;;1.73;;
49183;SDS011;35021;49.214;12.270;2022-08-03T05:46:13;3.25;;;2.20;;
49183;SDS011;35021;49.214;12.270;2022-08-03T05:48:40;2.70;;;1.95;;
49183;SDS011;35021;49.214;12.270;2022-08-03T05:51:08;2.55;;;2.22;;
49183;SDS011;35021;49.214;12.270;2022-08-03T05:53:37;2.05;;;1.85;;
49183;SDS011;35021;49.214;12.270;2022-08-03T05:56:04;2.40;;;2.20;;
49183;SDS011;35021;49.214;12.270;2022-08-03T06:01:12;2.63;;;2.17;;
49183;SDS011;35021;49.214;12.270;2022-08-03T06:03:39;2.88;;;2.30;;
49183;SDS011;35021;49.214;12.270;2022-08-03T06:06:06;4.20;;;2.30;;
49183;SDS011;35021;49.214;12.270;2022-08-03T06:08:33;2.83;;;2.28;;
49183;SDS011;35021;49.214;12.270;2022-08-03T06:11:00;2.30;;;2.10;;
49183;SDS011;35021;49.214;12.270;2022-08-03T06:13:27;2.50;;;2.20;;
49183;SDS011;35021;49.214;12.270;2022-08-03T06:15:54;2.45;;;2.25;;
49183;SDS011;35021;49.214;12.270;2022-08-03T06:18:21;2.90;;;2.17;;
49183;SDS011;35021;49.214;12.270;2022-08-03T06:20:50;2.90;;;2.20;;
49183;SDS011;35021;49.214;12.270;2022-08-03T06:23:17;3.50;;;2.60;;
49183;SDS011;35021;49.214;12.270;2022-08-03T06:25:45;2.28;;;2.05;;
49183;SDS011;35021;49.214;12.270;2022-08-03T06:28:12;2.92;;;2.20;;
49183;SDS011;35021;49.214;12.270;2022-08-03T06:31:03;2.55;;;2.05;;
49183;SDS011;35021;49.214;12.270;2022-08-03T06:33:32;2.83;;;2.35;;
49183;SDS011;35021;49.214;12.270;2022-08-03T06:36:18;2.53;;;2.20;;
49183;SDS011;35021;49.214;12.270;2022-08-03T06:38:45;2.65;;;2.20;;
49183;SDS011;35021;49.214;12.270;2022-08-03T06:41:12;3.15;;;2.30;;
49183;SDS011;35021;49.214;12.270;2022-08-03T06:43:39;2.55;;;2.25;;
49183;SDS011;35021;49.214;12.270;2022-08-03T06:46:27;2.53;;;2.10;;
49183;SDS011;35021;49.214;12.270;2022-08-03T06:48:54;2.50;;;2.00;;
49183;SDS011;35021;49.214;12.270;2022-08-03T06:51:21;3.28;;;2.38;;
49183;SDS011;35021;49.214;12.270;2022-08-03T06:54:08;4.18;;;2.33;;
49183;SDS011;35021;49.214;12.270;2022-08-03T06:56:37;2.80;;;2.50;;
49183;SDS011;35021;49.214;12.270;2022-08-03T06:59:04;2.55;;;2.10;;
49183;SDS011;35021;49.214;12.270;2022-08-03T07:01:31;2.30;;;2.10;;
49183;SDS011;35021;49.214;12.270;2022-08-03T07:03:57;3.08;;;2.42;;
49183;SDS011;35021;49.214;12.270;2022-08-03T07:06:25;2.38;;;2.17;;
49183;SDS011;35021;49.214;12.270;2022-08-03T07:08:52;3.08;;;2.00;;
49183;SDS011;35021;49.214;12.270;2022-08-03T07:11:24;2.40;;;2.20;;
49183;SDS011;35021;49.214;12.270;2022-08-03T07:13:51;3.53;;;2.38;;
49183;SDS011;35021;49.214;12.270;2022-08-03T07:16:18;2.53;;;2.03;;
49183;SDS011;35021;49.214;12.270;2022-08-03T07:18:45;2.75;;;2.00;;
49183;SDS011;35021;49.214;12.270;2022-08-03T07:21:12;2.30;;;1.90;;
49183;SDS011;35021;49.214;12.270;2022-08-03T07:23:41;2.45;;;2.00;;
49183;SDS011;35021;49.214;12.270;2022-08-03T07:26:08;2.35;;;1.90;;
49183;SDS011;35021;49.214;12.270;2022-08-03T07:28:35;4.18;;;1.77;;
49183;SDS011;35021;49.214;12.270;2022-08-03T07:31:01;2.67;;;2.10;;
49183;SDS011;35021;49.214;12.270;2022-08-03T07:33:28;2.20;;;1.88;;
49183;SDS011;35021;49.214;12.270;2022-08-03T07:35:55;2.20;;;2.00;;
49183;SDS011;35021;49.214;12.270;2022-08-03T07:38:22;1.95;;;1.85;;
49183;SDS011;35021;49.214;12.270;2022-08-03T07:40:49;1.70;;;1.60;;
49183;SDS011;35021;49.214;12.270;2022-08-03T07:43:15;3.47;;;1.80;;
49183;SDS011;35021;49.214;12.270;2022-08-03T07:45:42;2.30;;;1.90;;
49183;SDS011;35021;49.214;12.270;2022-08-03T07:48:09;1.88;;;1.63;;
49183;SDS011;35021;49.214;12.270;2022-08-03T07:50:38;2.55;;;1.73;;
49183;SDS011;35021;49.214;12.270;2022-08-03T07:53:04;2.83;;;1.42;;
49183;SDS011;35021;49.214;12.270;2022-08-03T07:55:31;1.70;;;1.60;;
49183;SDS011;35021;49.214;12.270;2022-08-03T07:58:02;2.20;;;1.58;;
49183;SDS011;35021;49.214;12.270;2022-08-03T08:00:31;1.98;;;1.67;;
49183;SDS011;35021;49.214;12.270;2022-08-03T08:02:59;2.63;;;1.50;;
49183;SDS011;35021;49.214;12.270;2022-08-03T08:05:26;2.28;;;1.70;;
49183;SDS011;35021;49.214;12.270;2022-08-03T08:07:53;1.50;;;1.40;;
49183;SDS011;35021;49.214;12.270;2022-08-03T08:10:20;1.85;;;1.38;;
49183;SDS011;35021;49.214;12.270;2022-08-03T08:12:47;1.60;;;1.50;;
49183;SDS011;35021;49.214;12.270;2022-08-03T08:15:14;1.83;;;1.70;;
49183;SDS011;35021;49.214;12.270;2022-08-03T08:17:46;1.73;;;1.55;;
49183;SDS011;35021;49.214;12.270;2022-08-03T08:20:16;2.20;;;1.40;;
49183;SDS011;35021;49.214;12.270;2022-08-03T08:22:54;1.70;;;1.50;;
49183;SDS011;35021;49.214;12.270;2022-08-03T08:25:27;1.63;;;1.30;;
49183;SDS011;35021;49.214;12.270;2022-08-03T08:27:55;2.03;;;1.60;;
49183;SDS011;35021;49.214;12.270;2022-08-03T08:30:42;1.70;;;1.50;;
49183;SDS011;35021;49.214;12.270;2022-08-03T08:33:09;2.17;;;1.33;;
49183;SDS011;35021;49.214;12.270;2022-08-03T08:35:48;1.50;;;1.30;;
49183;SDS011;35021;49.214;12.270;2022-08-03T08:38:16;1.65;;;1.55;;
49183;SDS011;35021;49.214;12.270;2022-08-03T08:40:43;1.65;;;1.15;;
49183;SDS011;35021;49.214;12.270;2022-08-03T08:43:10;1.40;;;1.20;;
49183;SDS011;35021;49.214;12.270;2022-08-03T08:45:37;1.50;;;1.30;;
49183;SDS011;35021;49.214;12.270;2022-08-03T08:48:05;2.13;;;1.20;;
49183;SDS011;35021;49.214;12.270;2022-08-03T08:50:36;2.05;;;1.20;;
49183;SDS011;35021;49.214;12.270;2022-08-03T08:53:04;1.27;;;1.15;;
49183;SDS011;35021;49.214;12.270;2022-08-03T08:55:40;1.42;;;1.20;;
49183;SDS011;35021;49.214;12.270;2022-08-03T08:58:27;1.45;;;1.10;;
49183;SDS011;35021;49.214;12.270;2022-08-03T09:00:55;1.65;;;1.33;;
49183;SDS011;35021;49.214;12.270;2022-08-03T09:03:22;1.65;;;1.10;;
49183;SDS011;35021;49.214;12.270;2022-08-03T09:05:57;1.30;;;1.20;;
49183;SDS011;35021;49.214;12.270;2022-08-03T09:08:26;2.25;;;1.35;;
49183;SDS011;35021;49.214;12.270;2022-08-03T09:10:53;1.20;;;1.10;;
49183;SDS011;35021;49.214;12.270;2022-08-03T09:13:20;1.13;;;1.02;;
49183;SDS011;35021;49.214;12.270;2022-08-03T09:15:47;1.13;;;1.02;;
49183;SDS011;35021;49.214;12.270;2022-08-03T09:18:28;1.33;;;1.20;;
49183;SDS011;35021;49.214;12.270;2022-08-03T09:24:00;1.77;;;1.30;;
49183;SDS011;35021;49.214;12.270;2022-08-03T09:26:35;1.27;;;1.10;;
49183;SDS011;35021;49.214;12.270;2022-08-03T09:29:07;1.50;;;1.05;;
49183;SDS011;35021;49.214;12.270;2022-08-03T09:31:41;0.98;;;0.82;;
49183;SDS011;35021;49.214;12.270;2022-08-03T09:34:11;1.20;;;1.10;;
49183;SDS011;35021;49.214;12.270;2022-08-03T09:36:44;1.58;;;1.08;;
49183;SDS011;35021;49.214;12.270;2022-08-03T09:39:13;1.95;;;1.17;;
49183;SDS011;35021;49.214;12.270;2022-08-03T09:41:42;1.33;;;1.10;;
49183;SDS011;35021;49.214;12.270;2022-08-03T09:44:10;1.35;;;1.02;;
49183;SDS011;35021;49.214;12.270;2022-08-03T09:46:54;1.75;;;1.20;;
49183;SDS011;35021;49.214;12.270;2022-08-03T09:49:22;1.30;;;1.20;;
49183;SDS011;35021;49.214;12.270;2022-08-03T09:51:50;1.38;;;1.10;;
49183;SDS011;35021;49.214;12.270;2022-08-03T09:54:37;2.40;;;1.20;;
49183;SDS011;35021;49.214;12.270;2022-08-03T09:57:04;1.38;;;1.02;;
49183;SDS011;35021;49.214;12.270;2022-08-03T09:59:32;1.30;;;1.10;;
49183;SDS011;35021;49.214;12.270;2022-08-03T10:01:59;1.50;;;1.25;;
49183;SDS011;35021;49.214;12.270;2022-08-03T10:04:27;1.23;;;1.13;;
49183;SDS011;35021;49.214;12.270;2022-08-03T10:07:05;1.20;;;1.10;;
49183;SDS011;35021;49.214;12.270;2022-08-03T10:09:34;1.40;;;1.10;;
49183;SDS011;35021;49.214;12.270;2022-08-03T10:12:08;1.25;;;1.08;;
49183;SDS011;35021;49.214;12.270;2022-08-03T10:14:37;1.20;;;1.10;;
49183;SDS011;35021;49.214;12.270;2022-08-03T10:17:10;1.42;;;1.20;;
49183;SDS011;35021;49.214;12.270;2022-08-03T10:19:38;2.58;;;1.40;;
49183;SDS011;35021;49.214;12.270;2022-08-03T10:22:15;1.50;;;1.30;;
49183;SDS011;35021;49.214;12.270;2022-08-03T10:24:52;1.38;;;1.08;;
49183;SDS011;35021;49.214;12.270;2022-08-03T10:27:25;1.55;;;1.10;;
49183;SDS011;35021;49.214;12.270;2022-08-03T10:29:56;1.20;;;1.10;;
49183;SDS011;35021;49.214;12.270;2022-08-03T10:32:40;1.73;;;1.20;;
49183;SDS011;35021;49.214;12.270;2022-08-03T10:35:14;1.02;;;0.93;;
49183;SDS011;35021;49.214;12.270;2022-08-03T10:40:22;1.50;;;1.27;;
49183;SDS011;35021;49.214;12.270;2022-08-03T10:43:17;1.77;;;1.17;;
49183;SDS011;35021;49.214;12.270;2022-08-03T10:45:46;1.60;;;1.13;;
49183;SDS011;35021;49.214;12.270;2022-08-03T10:48:13;1.45;;;1.30;;
49183;SDS011;35021;49.214;12.270;2022-08-03T10:50:41;1.10;;;1.00;;
49183;SDS011;35021;49.214;12.270;2022-08-03T10:53:09;1.67;;;1.00;;
49183;SDS011;35021;49.214;12.270;2022-08-03T10:55:41;1.50;;;1.00;;
49183;SDS011;35021;49.214;12.270;2022-08-03T11:04:26;1.70;;;1.20;;
49183;SDS011;35021;49.214;12.270;2022-08-03T11:09:42;1.30;;;1.20;;
49183;SDS011;35021;49.214;12.270;2022-08-03T11:12:23;1.10;;;0.80;;
49183;SDS011;35021;49.214;12.270;2022-08-03T11:15:06;1.30;;;1.20;;
49183;SDS011;35021;49.214;12.270;2022-08-03T11:17:34;1.58;;;1.20;;
49183;SDS011;35021;49.214;12.270;2022-08-03T11:23:11;1.80;;;1.23;;
49183;SDS011;35021;49.214;12.270;2022-08-03T11:28:40;1.33;;;1.13;;
49183;SDS011;35021;49.214;12.270;2022-08-03T11:34:09;1.60;;;1.20;;
49183;SDS011;35021;49.214;12.270;2022-08-03T11:39:43;1.48;;;1.10;;
49183;SDS011;35021;49.214;12.270;2022-08-03T11:42:37;1.95;;;1.20;;
49183;SDS011;35021;49.214;12.270;2022-08-03T11:45:05;2.05;;;1.38;;
49183;SDS011;35021;49.214;12.270;2022-08-03T11:47:35;1.10;;;1.00;;
49183;SDS011;35021;49.214;12.270;2022-08-03T11:50:16;1.85;;;1.30;;
49183;SDS011;35021;49.214;12.270;2022-08-03T11:52:45;1.65;;;1.00;;
49183;SDS011;35021;49.214;12.270;2022-08-03T11:55:12;1.65;;;1.20;;
49183;SDS011;35021;49.214;12.270;2022-08-03T11:57:41;1.80;;;1.10;;
49183;SDS011;35021;49.214;12.270;2022-08-03T12:00:29;2.17;;;1.40;;
49183;SDS011;35021;49.214;12.270;2022-08-03T12:10:53;2.03;;;1.17;;
49183;SDS011;35021;49.214;12.270;2022-08-03T12:13:22;2.30;;;1.30;;
49183;SDS011;35021;49.214;12.270;2022-08-03T12:16:09;2.47;;;1.48;;
49183;SDS011;35021;49.214;12.270;2022-08-03T12:18:42;1.45;;;1.20;;
49183;SDS011;35021;49.214;12.270;2022-08-03T12:21:09;2.08;;;1.27;;
49183;SDS011;35021;49.214;12.270;2022-08-03T12:23:37;1.70;;;1.15;;
49183;SDS011;35021;49.214;12.270;2022-08-03T12:26:05;1.63;;;1.20;;
49183;SDS011;35021;49.214;12.270;2022-08-03T12:28:35;1.80;;;1.20;;
49183;SDS011;35021;49.214;12.270;2022-08-03T12:31:07;1.67;;;1.17;;
49183;SDS011;35021;49.214;12.270;2022-08-03T12:33:54;1.60;;;1.23;;
49183;SDS011;35021;49.214;12.270;2022-08-03T12:36:29;3.95;;;1.60;;
49183;SDS011;35021;49.214;12.270;2022-08-03T12:38:59;2.03;;;1.40;;
49183;SDS011;35021;49.214;12.270;2022-08-03T12:41:28;1.98;;;1.20;;
49183;SDS011;35021;49.214;12.270;2022-08-03T12:44:05;1.88;;;1.05;;
49183;SDS011;35021;49.214;12.270;2022-08-03T12:54:15;1.92;;;1.33;;
49183;SDS011;35021;49.214;12.270;2022-08-03T12:56:59;2.00;;;1.55;;
49183;SDS011;35021;49.214;12.270;2022-08-03T12:59:49;2.55;;;1.52;;
49183;SDS011;35021;49.214;12.270;2022-08-03T13:02:20;1.63;;;1.13;;
49183;SDS011;35021;49.214;12.270;2022-08-03T13:04:49;1.88;;;1.50;;
49183;SDS011;35021;49.214;12.270;2022-08-03T13:07:17;1.95;;;1.50;;
49183;SDS011;35021;49.214;12.270;2022-08-03T13:09:46;1.77;;;1.20;;
49183;SDS011;35021;49.214;12.270;2022-08-03T13:12:18;1.98;;;1.52;;
49183;SDS011;35021;49.214;12.270;2022-08-03T13:14:58;1.73;;;1.33;;
49183;SDS011;35021;49.214;12.270;2022-08-03T13:17:26;2.30;;;1.52;;
49183;SDS011;35021;49.214;12.270;2022-08-03T13:19:53;1.83;;;1.30;;
49183;SDS011;35021;49.214;12.270;2022-08-03T13:22:22;1.92;;;1.40;;
49183;SDS011;35021;49.214;12.270;2022-08-03T13:24:51;3.20;;;1.45;;
49183;SDS011;35021;49.214;12.270;2022-08-03T13:27:21;2.15;;;1.45;;
49183;SDS011;35021;49.214;12.270;2022-08-03T13:30:08;2.25;;;1.38;;
49183;SDS011;35021;49.214;12.270;2022-08-03T13:32:35;2.97;;;1.40;;
49183;SDS011;35021;49.214;12.270;2022-08-03T13:35:02;2.42;;;1.52;;
49183;SDS011;35021;49.214;12.270;2022-08-03T13:37:29;2.80;;;1.30;;
49183;SDS011;35021;49.214;12.270;2022-08-03T13:40:00;2.85;;;1.60;;
49183;SDS011;35021;49.214;12.270;2022-08-03T13:42:31;2.08;;;1.38;;
49183;SDS011;35021;49.214;12.270;2022-08-03T13:44:59;3.67;;;1.50;;
49183;SDS011;35021;49.214;12.270;2022-08-03T13:47:27;2.53;;;1.40;;
49183;SDS011;35021;49.214;12.270;2022-08-03T13:49:54;3.85;;;1.98;;
49183;SDS011;35021;49.214;12.270;2022-08-03T13:52:31;4.97;;;1.80;;
49183;SDS011;35021;49.214;12.270;2022-08-03T13:55:00;6.72;;;2.10;;
49183;SDS011;35021;49.214;12.270;2022-08-03T13:57:28;4.47;;;1.80;;
49183;SDS011;35021;49.214;12.270;2022-08-03T14:00:16;6.65;;;1.77;;
49183;SDS011;35021;49.214;12.270;2022-08-03T14:02:58;5.43;;;1.83;;
49183;SDS011;35021;49.214;12.270;2022-08-03T14:05:38;2.55;;;1.52;;
49183;SDS011;35021;49.214;12.270;2022-08-03T14:08:06;2.70;;;1.67;;
49183;SDS011;35021;49.214;12.270;2022-08-03T14:10:34;6.00;;;1.63;;
49183;SDS011;35021;49.214;12.270;2022-08-03T14:13:03;4.25;;;1.98;;
49183;SDS011;35021;49.214;12.270;2022-08-03T14:15:30;5.78;;;1.90;;
49183;SDS011;35021;49.214;12.270;2022-08-03T14:18:03;3.88;;;1.63;;
49183;SDS011;35021;49.214;12.270;2022-08-03T14:20:41;3.72;;;1.77;;
49183;SDS011;35021;49.214;12.270;2022-08-03T14:23:19;3.00;;;1.73;;
49183;SDS011;35021;49.214;12.270;2022-08-03T14:25:47;3.42;;;1.88;;
49183;SDS011;35021;49.214;12.270;2022-08-03T14:28:21;2.90;;;1.60;;
49183;SDS011;35021;49.214;12.270;2022-08-03T14:30:52;4.38;;;1.60;;
49183;SDS011;35021;49.214;12.270;2022-08-03T14:33:21;4.88;;;1.67;;
49183;SDS011;35021;49.214;12.270;2022-08-03T14:35:48;2.75;;;1.65;;
49183;SDS011;35021;49.214;12.270;2022-08-03T14:38:16;2.22;;;1.45;;
49183;SDS011;35021;49.214;12.270;2022-08-03T14:40:43;3.67;;;1.52;;
49183;SDS011;35021;49.214;12.270;2022-08-03T14:43:10;3.28;;;1.50;;
49183;SDS011;35021;49.214;12.270;2022-08-03T14:45:40;3.55;;;2.03;;
49183;SDS011;35021;49.214;12.270;2022-08-03T14:48:08;2.47;;;1.77;;
49183;SDS011;35021;49.214;12.270;2022-08-03T14:50:54;3.80;;;1.60;;
49183;SDS011;35021;49.214;12.270;2022-08-03T14:53:22;4.07;;;1.95;;
49183;SDS011;35021;49.214;12.270;2022-08-03T14:55:49;3.47;;;1.50;;
49183;SDS011;35021;49.214;12.270;2022-08-03T14:58:18;4.63;;;1.75;;
49183;SDS011;35021;49.214;12.270;2022-08-03T15:00:47;3.58;;;1.73;;
49183;SDS011;35021;49.214;12.270;2022-08-03T15:03:16;5.22;;;1.73;;
49183;SDS011;35021;49.214;12.270;2022-08-03T15:05:46;3.72;;;1.65;;
49183;SDS011;35021;49.214;12.270;2022-08-03T15:08:13;3.15;;;1.40;;
49183;SDS011;35021;49.214;12.270;2022-08-03T15:10:40;2.95;;;1.52;;
49183;SDS011;35021;49.214;12.270;2022-08-03T15:13:13;3.45;;;2.03;;
49183;SDS011;35021;49.214;12.270;2022-08-03T15:15:40;2.53;;;1.50;;
49183;SDS011;35021;49.214;12.270;2022-08-03T15:18:08;4.47;;;2.03;;
49183;SDS011;35021;49.214;12.270;2022-08-03T15:20:35;2.22;;;1.40;;
49183;SDS011;35021;49.214;12.270;2022-08-03T15:23:10;2.65;;;1.75;;
49183;SDS011;35021;49.214;12.270;2022-08-03T15:25:38;3.58;;;1.42;;
49183;SDS011;35021;49.214;12.270;2022-08-03T15:28:25;3.20;;;1.33;;
49183;SDS011;35021;49.214;12.270;2022-08-03T15:30:52;2.92;;;1.73;;
49183;SDS011;35021;49.214;12.270;2022-08-03T15:33:18;5.47;;;1.70;;
49183;SDS011;35021;49.214;12.270;2022-08-03T15:35:46;4.15;;;1.70;;
49183;SDS011;35021;49.214;12.270;2022-08-03T15:38:13;2.67;;;1.45;;
49183;SDS011;35021;49.214;12.270;2022-08-03T15:40:40;2.92;;;1.90;;
49183;SDS011;35021;49.214;12.270;2022-08-03T15:43:07;1.95;;;1.45;;
49183;SDS011;35021;49.214;12.270;2022-08-03T15:45:34;4.05;;;1.23;;
49183;SDS011;35021;49.214;12.270;2022-08-03T15:48:03;2.42;;;1.60;;
49183;SDS011;35021;49.214;12.270;2022-08-03T15:50:31;1.92;;;1.42;;
49183;SDS011;35021;49.214;12.270;2022-08-03T15:52:58;2.30;;;1.20;;
49183;SDS011;35021;49.214;12.270;2022-08-03T15:55:24;2.00;;;1.30;;